Youngstown, OH

6:57 AM EDT on August 30, 2014 (GMT -0400)
New Castle Municipal | Change Station
CLOSE
Current Station
Airport
Location: New Castle,
Elevation: 1073 ft
Nearby Weather Stations

Elev 1073 ft 41.03 °N, 80.41 °W | Updated 1 hour ago

Clear
Clear
57 °F
Feels Like 57 °F
N
0
Wind Variable Wind from North

Today
High -- | Low -- °F
--% Chance of Precip.
Yesterday
High -- | Low -- °F
Precip. -- in
6:47 AM 7:58 PM
Waxing Crescent, 21% visible
Pressure 30.14 in
Visibility 10.0 miles
Clouds Clear
Dew Point 56 °F
Humidity 97%
Rainfall 0.00 in
Snow Depth Not available.
UV 0 out of 12
Pollen 9.20 out of 12
Ozone Good
PM2.5 Moderate
Flu Activity Not available.
METAR KUCP 300956Z AUTO 00000KT 10SM CLR 14/13 A3011 RMK AO2 TSNO T01380133 SLP207

More Conditions Fewer Conditions

Pressure 30.14 in
Visibility 10.0 miles
Clouds Clear
Dew Point 56 °F
Humidity 97%
Rainfall 0.00 in
Snow Depth Not available.
UV 0 out of 12
Pollen 9.20 out of 12
Ozone Good
PM2.5 Moderate
Flu Activity Not available.
METAR KUCP 300956Z AUTO 00000KT 10SM CLR 14/13 A3011 RMK AO2 TSNO T01380133 SLP207

More Conditions Fewer Conditions

10-Day Weather Forecast

Almanac

Astronomy

Aug. 30, 2014 Rise Set
Actual Time 6:47 AM EDT 7:58 PM EDT
Civil Twilight 6:18 AM EDT 8:26 PM EDT
Nautical Twilight 5:44 AM EDT 9:00 PM EDT
Astronomical Twilight 5:09 AM EDT 9:36 PM EDT
Moon 11:36 AM EDT 10:28 PM EDT
Length of Visible Light 14h 08m
Length of Day
13h 11m
Tomorrow will be 2m 37s shorter.
Waxing Crescent, 21% of the Moon is Illuminated
Today
Waxing Crescent
Sep 2
First Quarter
Sep 8
Full
Sep 15
Last Quarter
Sep 24
New

Today's Extremes

State Highs State Lows

Community

WunderPhotos

Upload Photos

1,748,482 photos uploaded!

WunderBlogs® & News

By Dr. Jeff Masters
Director of Meteorology, Weather Underground
By Kari Strenfel
Meteorologist, Weather Underground
By Christopher C. Burt
Weather Historian, Weather Underground
August 30, 2014
August 29, 2014
August 29, 2014

Nearby

Air Quality

  Air Quality AQ Index Pollutant
Yesterday Good
PM2.5
Yesterday Good
OZONE
Current Moderate
PM2.5
Current Good
OZONE
Saturday Moderate
OZONE
Saturday Moderate
PM2.5
Sunday Good
OZONE
Sunday Good
PM2.5
Monday Good
PM2.5
Monday Good
OZONE
Tuesday Good
OZONE
Tuesday Good
PM2.5
Wednesday Good
OZONE
Wednesday Good
PM2.5

Snow Depth

Station Depth Elevation
No new snow has been reported.

Earthquake Activity

City Distance Mag. Time & Date
No recent earthquake activity has been reported nearby.
Minimum magnitude displayed is 2.5.

Coastal Water Temperatures

Place Temperature
No Stations Reporting

Nearby Weather Stations